Time;durP1;ratioP1;P1;durP2;ratioP2;P2;SDS_P1;SDS_P2;PMS_P1;PMS_P2;Temp;Humidity;BMP_temperature;BMP_pressure;BME280_temperature;BME280_humidity;BME280_pressure;Samples;Min_cycle;Max_cycle;Signal;HPM_P1;HPM_P2
2022/04/14 00:00:33;;;;;;;12.27;8.50;;;11.40;99.90;;;;;;4941328;28;21459;-58
2022/04/14 00:02:59;;;;;;;12.93;8.90;;;11.40;99.90;;;;;;4948593;28;20086;-57
2022/04/14 00:05:25;;;;;;;15.60;9.02;;;11.40;99.90;;;;;;4931658;28;20047;-58
2022/04/14 00:07:51;;;;;;;17.20;9.13;;;11.40;99.90;;;;;;4949438;28;20051;-56
2022/04/14 00:10:17;;;;;;;15.25;9.40;;;11.40;99.90;;;;;;4946933;28;20158;-56
2022/04/14 00:12:44;;;;;;;14.30;9.25;;;11.40;99.90;;;;;;4947919;28;20130;-57
2022/04/14 00:15:11;;;;;;;14.95;8.70;;;11.30;99.90;;;;;;4960809;28;20071;-57
2022/04/14 00:17:37;;;;;;;17.35;9.30;;;11.30;99.90;;;;;;4945099;28;20050;-58
2022/04/14 00:20:06;;;;;;;14.40;9.63;;;11.20;99.90;;;;;;4947655;28;20057;-57
2022/04/14 00:22:33;;;;;;;17.77;9.88;;;11.20;99.90;;;;;;4947583;28;20078;-57
2022/04/14 00:24:59;;;;;;;13.02;8.60;;;11.20;99.90;;;;;;4950044;28;20055;-57
2022/04/14 00:27:25;;;;;;;15.30;9.68;;;11.20;99.90;;;;;;4947876;28;20386;-57
2022/04/14 00:29:50;;;;;;;14.52;9.02;;;11.20;99.90;;;;;;4945132;28;20501;-58
2022/04/14 00:32:17;;;;;;;12.57;8.93;;;11.10;99.90;;;;;;4931084;28;20139;-57
2022/04/14 00:34:43;;;;;;;12.70;8.40;;;11.10;99.90;;;;;;4944753;28;20051;-56
2022/04/14 00:37:10;;;;;;;17.38;10.30;;;11.10;99.90;;;;;;4949982;28;20520;-58
2022/04/14 00:39:37;;;;;;;14.35;9.27;;;11.10;99.90;;;;;;4949097;28;20404;-58
2022/04/14 00:42:10;;;;;;;18.05;10.07;;;11.10;99.90;;;;;;4944125;28;20043;-57
2022/04/14 00:44:36;;;;;;;17.77;10.50;;;11.00;99.90;;;;;;4949391;28;20049;-57
2022/04/14 00:47:03;;;;;;;14.88;9.45;;;11.00;99.90;;;;;;4953016;28;20054;-57
2022/04/14 00:49:29;;;;;;;14.57;8.60;;;11.00;99.90;;;;;;4935245;28;20104;-58
2022/04/14 00:51:56;;;;;;;14.57;9.15;;;10.90;99.90;;;;;;4931987;28;20051;-57
2022/04/14 00:54:21;;;;;;;12.07;8.65;;;10.90;99.90;;;;;;4962700;28;20065;-57
2022/04/14 00:56:47;;;;;;;16.45;10.75;;;10.90;99.90;;;;;;4947427;28;20051;-57
2022/04/14 00:59:13;;;;;;;17.75;10.48;;;10.90;99.90;;;;;;4948641;28;20054;-58
2022/04/14 01:01:39;;;;;;;13.95;10.35;;;10.90;99.90;;;;;;4944928;28;20043;-57
2022/04/14 01:04:06;;;;;;;13.05;9.50;;;10.80;99.90;;;;;;4945178;28;20047;-57
2022/04/14 01:06:32;;;;;;;13.48;9.15;;;10.80;99.90;;;;;;4944625;28;20043;-56
2022/04/14 01:09:18;;;;;;;15.63;9.32;;;10.80;99.90;;;;;;4944387;28;20109;-57
2022/04/14 01:11:46;;;;;;;14.40;9.65;;;10.70;99.90;;;;;;4945246;28;20055;-58
2022/04/14 01:14:30;;;;;;;14.23;9.52;;;10.70;99.90;;;;;;4929603;28;20050;-58
2022/04/14 01:16:59;;;;;;;12.90;8.82;;;10.70;99.90;;;;;;4945655;28;20523;-57
2022/04/14 01:19:26;;;;;;;13.25;8.80;;;10.70;99.90;;;;;;4949405;28;20073;-58
2022/04/14 01:22:24;;;;;;;13.60;9.13;;;10.70;99.90;;;;;;4929092;28;20062;-58
2022/04/14 01:24:55;;;;;;;16.95;11.00;;;10.70;99.90;;;;;;4947895;28;20047;-58
2022/04/14 01:27:21;;;;;;;14.70;10.32;;;10.60;99.90;;;;;;4946530;28;20539;-57
2022/04/14 01:29:47;;;;;;;14.15;10.55;;;10.50;99.90;;;;;;4930050;28;20102;-57
2022/04/14 01:32:13;;;;;;;17.33;10.90;;;10.50;99.90;;;;;;4943569;28;20497;-57
2022/04/14 01:34:39;;;;;;;12.95;10.38;;;10.50;99.90;;;;;;4948730;28;20148;-56
2022/04/14 01:37:05;;;;;;;17.98;11.18;;;10.50;99.90;;;;;;4954103;28;20047;-57
2022/04/14 01:39:32;;;;;;;13.70;9.55;;;10.40;99.90;;;;;;4934719;28;20062;-58
2022/04/14 01:41:57;;;;;;;14.90;9.68;;;10.40;99.90;;;;;;4948921;28;20067;-57
2022/04/14 01:44:23;;;;;;;16.80;11.02;;;10.40;99.90;;;;;;4951153;28;20185;-56
2022/04/14 01:46:49;;;;;;;14.85;10.00;;;10.40;99.90;;;;;;4941928;28;20121;-58
2022/04/14 01:49:15;;;;;;;17.27;12.13;;;10.30;99.90;;;;;;4952119;28;20054;-56
2022/04/14 01:51:40;;;;;;;15.00;11.20;;;10.30;99.90;;;;;;4949813;28;20066;-57
2022/04/14 01:54:07;;;;;;;13.95;10.45;;;10.30;99.90;;;;;;4948939;28;20434;-57
2022/04/14 01:56:33;;;;;;;14.55;11.00;;;10.20;99.90;;;;;;4951292;28;20146;-57
2022/04/14 01:58:59;;;;;;;13.82;10.15;;;10.20;99.90;;;;;;4952311;28;20101;-58
2022/04/14 02:01:24;;;;;;;20.58;13.45;;;10.20;99.90;;;;;;4933359;28;20054;-58
2022/04/14 02:03:51;;;;;;;15.25;11.20;;;10.20;99.90;;;;;;4953271;28;20049;-57
2022/04/14 02:06:18;;;;;;;17.13;10.70;;;10.20;99.90;;;;;;4948140;28;20055;-57
2022/04/14 02:08:44;;;;;;;16.02;11.38;;;10.10;99.90;;;;;;4949231;28;20050;-58
2022/04/14 02:11:10;;;;;;;17.52;11.90;;;10.10;99.90;;;;;;4960623;28;20058;-57
2022/04/14 02:13:37;;;;;;;15.82;11.23;;;10.10;99.90;;;;;;4952918;28;20051;-58
2022/04/14 02:16:03;;;;;;;18.17;11.35;;;10.10;99.90;;;;;;4952463;28;20070;-57
2022/04/14 02:18:29;;;;;;;16.60;10.35;;;10.10;99.90;;;;;;4931328;28;20047;-56
2022/04/14 02:20:54;;;;;;;17.80;12.63;;;10.00;99.90;;;;;;4932887;28;20079;-58
2022/04/14 02:23:20;;;;;;;19.73;13.23;;;10.00;99.90;;;;;;4934842;28;20057;-57
2022/04/14 02:25:46;;;;;;;18.95;12.40;;;10.00;99.90;;;;;;4947225;28;20396;-57
2022/04/14 02:28:13;;;;;;;18.15;12.43;;;10.00;99.90;;;;;;4949588;28;20051;-58
2022/04/14 02:30:39;;;;;;;25.17;16.17;;;9.90;99.90;;;;;;4947481;28;20062;-58
2022/04/14 02:33:05;;;;;;;19.17;12.88;;;9.90;99.90;;;;;;4932699;28;20062;-57
2022/04/14 02:35:31;;;;;;;17.60;12.82;;;9.90;99.90;;;;;;4952017;28;20073;-57
2022/04/14 02:37:57;;;;;;;20.00;13.90;;;9.80;99.90;;;;;;4948299;28;20058;-58
2022/04/14 02:40:26;;;;;;;17.20;12.07;;;9.80;99.90;;;;;;4936067;28;20058;-58
2022/04/14 02:42:54;;;;;;;16.15;12.90;;;9.80;99.90;;;;;;4949459;28;20047;-57
2022/04/14 02:45:21;;;;;;;20.88;13.45;;;9.80;99.90;;;;;;4931140;28;20480;-57
2022/04/14 02:47:47;;;;;;;21.95;14.88;;;9.70;99.90;;;;;;4952113;28;20054;-57
2022/04/14 02:50:13;;;;;;;19.17;13.88;;;9.70;99.90;;;;;;4947592;28;20047;-58
2022/04/14 02:52:38;;;;;;;20.83;15.02;;;9.60;99.90;;;;;;4948741;28;20137;-57
2022/04/14 02:55:05;;;;;;;26.15;16.63;;;9.60;99.90;;;;;;4950124;28;20054;-58
2022/04/14 02:57:30;;;;;;;25.38;18.10;;;9.60;99.90;;;;;;4946264;28;20117;-56
2022/04/14 02:59:57;;;;;;;27.55;17.83;;;9.50;99.90;;;;;;4950269;28;20110;-57
2022/04/14 03:02:23;;;;;;;23.00;15.50;;;9.60;99.90;;;;;;4948438;28;20054;-57
2022/04/14 03:04:49;;;;;;;25.27;16.70;;;9.50;99.90;;;;;;4922426;28;20047;-56
2022/04/14 03:07:15;;;;;;;31.15;18.27;;;9.50;99.90;;;;;;4949349;28;20082;-58
2022/04/14 03:09:41;;;;;;;24.10;16.70;;;9.50;99.90;;;;;;4945421;28;20960;-58
2022/04/14 03:12:08;;;;;;;25.40;17.45;;;9.50;99.90;;;;;;4943231;28;20055;-56
2022/04/14 03:14:33;;;;;;;23.30;16.50;;;9.40;99.90;;;;;;4922275;28;20067;-57
2022/04/14 03:16:59;;;;;;;25.92;17.75;;;9.40;99.90;;;;;;4933264;28;20047;-58
2022/04/14 03:19:25;;;;;;;25.33;17.27;;;9.40;99.90;;;;;;4937509;28;20106;-57
2022/04/14 03:21:51;;;;;;;25.55;16.38;;;9.40;99.90;;;;;;4945137;28;20057;-56
2022/04/14 03:24:17;;;;;;;30.75;19.92;;;9.30;99.90;;;;;;4962496;28;20055;-57
2022/04/14 03:26:42;;;;;;;30.05;19.40;;;9.30;99.90;;;;;;4948941;28;20059;-57
2022/04/14 03:29:08;;;;;;;36.15;21.80;;;9.30;99.90;;;;;;4946179;28;20058;-57
2022/04/14 03:31:34;;;;;;;31.52;20.70;;;9.30;99.90;;;;;;4961890;28;20054;-57
2022/04/14 03:34:00;;;;;;;30.60;19.65;;;9.30;99.90;;;;;;4948695;28;20079;-57
2022/04/14 03:36:26;;;;;;;30.77;19.70;;;9.30;99.90;;;;;;4945686;28;20118;-57
2022/04/14 03:38:51;;;;;;;29.45;21.33;;;9.20;99.90;;;;;;4947150;28;20049;-58
2022/04/14 03:41:17;;;;;;;28.77;19.55;;;9.20;99.90;;;;;;4943768;28;20516;-57
2022/04/14 03:43:43;;;;;;;29.35;20.60;;;9.20;99.90;;;;;;4934040;28;20055;-58
2022/04/14 03:46:09;;;;;;;29.98;19.42;;;9.20;99.90;;;;;;4961240;28;20057;-57
2022/04/14 03:48:35;;;;;;;24.20;17.52;;;9.10;99.90;;;;;;4950008;28;20051;-57
2022/04/14 03:51:01;;;;;;;29.13;19.55;;;9.10;99.90;;;;;;4947665;28;20125;-57
2022/04/14 03:53:27;;;;;;;28.30;19.55;;;9.00;99.90;;;;;;4946517;28;20055;-57
2022/04/14 03:55:53;;;;;;;30.67;20.35;;;9.00;99.90;;;;;;4946567;28;20070;-57
2022/04/14 03:58:19;;;;;;;24.95;18.95;;;8.90;99.90;;;;;;4947618;28;20062;-56
2022/04/14 04:00:45;;;;;;;25.80;17.98;;;8.90;99.90;;;;;;4963040;28;20489;-57
2022/04/14 04:03:12;;;;;;;24.50;18.27;;;8.90;99.90;;;;;;4947302;28;20105;-57
2022/04/14 04:05:38;;;;;;;31.45;21.88;;;8.80;99.90;;;;;;4948173;28;20101;-57
2022/04/14 04:08:08;;;;;;;25.52;18.58;;;8.80;99.90;;;;;;4961795;28;20054;-57
2022/04/14 04:10:34;;;;;;;25.73;18.00;;;8.80;99.90;;;;;;4948300;28;20051;-58
2022/04/14 04:13:00;;;;;;;29.48;20.70;;;8.80;99.90;;;;;;4940092;28;20121;-57
2022/04/14 04:15:25;;;;;;;26.45;18.02;;;8.80;99.90;;;;;;4946968;28;20509;-57
2022/04/14 04:17:51;;;;;;;26.38;18.13;;;8.80;99.90;;;;;;4947853;28;20121;-57
2022/04/14 04:20:18;;;;;;;30.77;21.50;;;8.70;99.90;;;;;;4943549;28;20513;-57
2022/04/14 04:22:44;;;;;;;32.67;23.00;;;8.70;99.90;;;;;;4949440;28;20154;-57
2022/04/14 04:25:10;;;;;;;33.10;23.80;;;8.70;99.90;;;;;;4950126;28;20047;-56
2022/04/14 04:27:37;;;;;;;34.33;22.42;;;8.70;99.90;;;;;;4948758;28;20047;-57
2022/04/14 04:30:07;;;;;;;33.10;23.23;;;8.70;99.90;;;;;;4932536;28;20375;-57
2022/04/14 04:32:34;;;;;;;36.38;23.42;;;8.70;99.90;;;;;;4976439;28;20493;-57
2022/04/14 04:35:04;;;;;;;30.15;21.73;;;8.60;99.90;;;;;;4950863;28;20047;-58
2022/04/14 04:37:30;;;;;;;35.53;21.92;;;8.60;99.90;;;;;;4946481;28;20141;-59
2022/04/14 04:39:56;;;;;;;35.28;23.75;;;8.60;99.90;;;;;;4947785;28;20054;-59
2022/04/14 04:42:22;;;;;;;29.38;20.42;;;8.60;99.90;;;;;;4946891;28;20643;-58
2022/04/14 04:44:49;;;;;;;32.72;22.50;;;8.60;99.90;;;;;;4943781;28;20169;-58
2022/04/14 04:47:15;;;;;;;33.25;21.17;;;8.60;99.90;;;;;;4961667;28;20078;-57
2022/04/14 04:49:41;;;;;;;30.25;21.65;;;8.60;99.90;;;;;;4948218;28;20051;-58
2022/04/14 04:52:07;;;;;;;31.10;21.52;;;8.60;99.90;;;;;;4948186;28;20074;-58
2022/04/14 04:54:33;;;;;;;43.72;25.60;;;8.60;99.90;;;;;;4922125;28;20051;-58
2022/04/14 04:56:59;;;;;;;33.88;23.63;;;8.60;99.90;;;;;;4957633;28;20055;-58
2022/04/14 04:59:24;;;;;;;39.17;25.40;;;8.50;99.90;;;;;;4946594;28;20081;-59
2022/04/14 05:01:50;;;;;;;39.88;25.63;;;8.60;99.90;;;;;;4943165;28;20051;-58
2022/04/14 05:04:16;;;;;;;37.25;25.48;;;8.50;99.90;;;;;;4949216;28;20636;-58
2022/04/14 05:06:42;;;;;;;31.92;22.83;;;8.50;99.90;;;;;;4947603;28;20062;-59
2022/04/14 05:09:08;;;;;;;35.50;25.27;;;8.50;99.90;;;;;;4946256;28;20062;-58
2022/04/14 05:11:34;;;;;;;39.33;25.58;;;8.50;99.90;;;;;;4949898;28;20058;-57
2022/04/14 05:14:01;;;;;;;40.35;26.15;;;8.40;99.90;;;;;;4953781;28;20055;-57
2022/04/14 05:16:27;;;;;;;34.15;25.73;;;8.40;99.90;;;;;;4948344;28;20114;-59
2022/04/14 05:18:53;;;;;;;36.28;22.38;;;8.40;99.90;;;;;;4948623;28;20129;-58
2022/04/14 05:21:19;;;;;;;33.47;24.17;;;8.40;99.90;;;;;;4955991;28;20082;-58
2022/04/14 05:23:45;;;;;;;39.63;26.67;;;8.40;99.90;;;;;;4947226;28;20158;-58
2022/04/14 05:26:11;;;;;;;41.53;26.08;;;8.40;99.90;;;;;;4951626;28;20054;-58
2022/04/14 05:28:37;;;;;;;39.63;26.95;;;8.40;99.90;;;;;;4951835;28;20050;-58
2022/04/14 05:31:03;;;;;;;38.88;27.58;;;8.40;99.90;;;;;;4945899;28;20051;-57
2022/04/14 05:33:29;;;;;;;43.90;28.08;;;8.40;99.90;;;;;;4935333;28;20059;-57
2022/04/14 05:35:54;;;;;;;42.92;29.40;;;8.50;99.90;;;;;;4950843;28;20050;-57
2022/04/14 05:38:20;;;;;;;44.95;28.98;;;8.50;99.90;;;;;;4936125;28;20054;-58
2022/04/14 05:40:46;;;;;;;47.30;30.13;;;8.50;99.90;;;;;;4948894;28;20062;-58
2022/04/14 05:43:18;;;;;;;45.85;28.98;;;8.50;99.90;;;;;;4953533;28;20074;-58
2022/04/14 05:45:47;;;;;;;43.72;29.50;;;8.50;99.90;;;;;;4948847;28;20149;-57
2022/04/14 05:48:14;;;;;;;39.35;26.33;;;8.60;99.90;;;;;;4956248;28;20101;-58
2022/04/14 05:50:41;;;;;;;44.65;30.17;;;8.60;99.90;;;;;;4950018;28;20062;-58
2022/04/14 05:53:07;;;;;;;42.60;27.52;;;8.60;99.90;;;;;;4935297;28;20520;-58
2022/04/14 05:55:33;;;;;;;44.95;29.00;;;8.60;99.90;;;;;;4952351;28;20047;-58
2022/04/14 05:57:58;;;;;;;51.15;29.58;;;8.70;99.90;;;;;;4949661;28;20097;-57
2022/04/14 06:00:24;;;;;;;40.53;28.02;;;8.70;99.90;;;;;;4965327;28;20055;-58
2022/04/14 06:02:50;;;;;;;40.03;27.20;;;8.80;99.90;;;;;;4954531;28;20521;-58
2022/04/14 06:05:16;;;;;;;42.80;28.45;;;8.80;99.90;;;;;;4950854;28;20073;-58
2022/04/14 06:07:42;;;;;;;42.70;28.73;;;8.80;99.90;;;;;;4931515;28;20079;-57
2022/04/14 06:10:08;;;;;;;41.10;28.20;;;8.90;99.90;;;;;;4952104;28;20055;-57
2022/04/14 06:12:33;;;;;;;42.63;29.92;;;8.90;99.90;;;;;;4935080;28;20469;-57
2022/04/14 06:15:00;;;;;;;47.28;31.17;;;8.90;99.90;;;;;;4948507;28;20055;-57
2022/04/14 06:17:26;;;;;;;44.38;30.77;;;9.00;99.90;;;;;;4932513;28;20063;-57
2022/04/14 06:19:52;;;;;;;57.05;34.50;;;9.00;99.90;;;;;;4939829;28;20652;-57
2022/04/14 06:22:18;;;;;;;56.70;35.05;;;9.10;99.90;;;;;;4932481;28;20058;-57
2022/04/14 06:24:44;;;;;;;52.72;33.13;;;9.10;99.90;;;;;;4933584;28;20051;-57
2022/04/14 06:27:10;;;;;;;57.13;33.45;;;9.10;99.90;;;;;;4946379;28;20519;-59
2022/04/14 06:29:35;;;;;;;56.58;35.22;;;9.20;99.90;;;;;;4935063;28;20125;-57
2022/04/14 06:32:01;;;;;;;59.22;35.90;;;9.30;99.90;;;;;;4934074;28;20090;-57
2022/04/14 06:34:27;;;;;;;57.92;36.17;;;9.30;99.90;;;;;;4934387;28;20481;-59
2022/04/14 06:36:53;;;;;;;56.10;33.50;;;9.40;99.90;;;;;;4935620;28;20039;-58
2022/04/14 06:39:18;;;;;;;51.95;34.47;;;9.50;99.90;;;;;;4933424;28;20128;-57
2022/04/14 06:41:44;;;;;;;51.92;32.65;;;9.60;99.90;;;;;;4962194;28;20054;-56
2022/04/14 06:44:10;;;;;;;53.33;33.88;;;9.70;99.90;;;;;;4930919;28;20540;-55
2022/04/14 06:46:38;;;;;;;52.55;32.92;;;9.80;99.90;;;;;;4929387;28;20090;-56
2022/04/14 06:49:03;;;;;;;45.67;32.45;;;9.80;99.90;;;;;;4936788;28;20378;-56
2022/04/14 06:51:30;;;;;;;52.78;34.47;;;9.90;99.90;;;;;;4924176;28;20116;-57
2022/04/14 06:53:56;;;;;;;49.53;32.53;;;10.00;99.90;;;;;;4930155;28;20404;-58
2022/04/14 06:56:21;;;;;;;52.70;33.13;;;10.00;99.90;;;;;;4929409;28;20040;-57
2022/04/14 06:58:47;;;;;;;45.95;30.23;;;10.10;99.90;;;;;;4927837;28;20114;-58
2022/04/14 07:01:13;;;;;;;49.72;30.90;;;10.20;99.90;;;;;;4925426;28;20648;-58
2022/04/14 07:03:39;;;;;;;41.20;28.65;;;10.30;99.90;;;;;;4931492;28;20568;-58
2022/04/14 07:06:05;;;;;;;47.83;30.38;;;10.30;99.90;;;;;;4932019;28;20533;-58
2022/04/14 07:08:33;;;;;;;46.78;30.00;;;10.40;99.90;;;;;;4930828;28;20131;-57
2022/04/14 07:11:00;;;;;;;44.42;29.60;;;10.50;99.90;;;;;;4925997;28;20509;-58
2022/04/14 07:13:27;;;;;;;46.60;30.40;;;10.60;99.90;;;;;;4928192;28;20454;-58
2022/04/14 07:15:55;;;;;;;49.42;30.63;;;10.70;99.90;;;;;;4947955;28;20086;-58
2022/04/14 07:18:22;;;;;;;41.42;29.05;;;10.70;99.90;;;;;;4950844;28;20409;-58
2022/04/14 07:20:48;;;;;;;45.20;30.70;;;10.80;99.90;;;;;;4961991;28;20169;-58
2022/04/14 07:23:14;;;;;;;44.03;29.23;;;10.90;99.90;;;;;;4948969;28;20055;-58
2022/04/14 07:25:40;;;;;;;45.13;29.73;;;11.00;99.90;;;;;;4966814;28;20217;-58
2022/04/14 07:28:07;;;;;;;43.40;28.70;;;11.10;99.90;;;;;;4933412;28;20245;-58
2022/04/14 07:30:33;;;;;;;43.58;28.92;;;11.10;99.90;;;;;;4948709;28;20051;-58
2022/04/14 07:33:04;;;;;;;44.15;29.05;;;11.20;99.90;;;;;;4944504;28;20397;-58
2022/04/14 07:35:32;;;;;;;48.53;28.60;;;11.40;99.90;;;;;;4944296;28;20051;-57
2022/04/14 07:37:58;;;;;;;40.65;28.08;;;11.50;99.90;;;;;;4951285;28;20043;-58
2022/04/14 07:40:25;;;;;;;41.63;27.50;;;11.60;99.90;;;;;;4937103;28;20503;-57
2022/04/14 07:42:51;;;;;;;44.42;27.40;;;11.80;99.90;;;;;;4963441;28;20082;-58
2022/04/14 07:45:18;;;;;;;39.70;27.70;;;11.90;99.90;;;;;;4949154;28;20894;-57
2022/04/14 07:47:45;;;;;;;42.58;26.10;;;12.00;99.90;;;;;;4949527;28;20520;-56
2022/04/14 07:50:13;;;;;;;38.08;26.38;;;12.10;99.90;;;;;;4950098;28;20232;-58
2022/04/14 07:52:49;;;;;;;37.30;25.92;;;12.20;99.90;;;;;;4966451;28;20438;-57
2022/04/14 07:55:23;;;;;;;36.00;26.52;;;12.30;99.90;;;;;;4949108;28;20057;-58
2022/04/14 07:57:55;;;;;;;37.45;26.45;;;12.50;99.90;;;;;;4948238;28;20157;-58
2022/04/14 08:00:21;;;;;;;35.67;25.92;;;12.60;99.90;;;;;;4949242;28;20142;-57
2022/04/14 08:02:54;;;;;;;35.47;25.10;;;12.70;99.90;;;;;;4950565;28;20590;-58
2022/04/14 08:05:41;;;;;;;35.75;24.02;;;12.80;99.90;;;;;;4948194;28;20814;-57
2022/04/14 08:08:11;;;;;;;34.95;25.50;;;12.90;99.90;;;;;;4965138;28;20094;-59
2022/04/14 08:10:37;;;;;;;38.22;24.42;;;13.00;99.90;;;;;;4947975;28;20143;-58
2022/04/14 08:13:04;;;;;;;31.83;23.33;;;13.20;99.90;;;;;;4964236;28;20051;-58
2022/04/14 08:15:31;;;;;;;33.28;23.05;;;13.30;99.90;;;;;;4948673;28;20101;-58
2022/04/14 08:17:57;;;;;;;36.83;23.73;;;13.40;99.90;;;;;;4947498;28;20051;-58
2022/04/14 08:20:24;;;;;;;29.77;22.15;;;13.60;99.90;;;;;;4932004;28;20051;-58
2022/04/14 08:22:54;;;;;;;32.15;22.70;;;13.70;99.90;;;;;;4948071;28;20046;-57
2022/04/14 08:25:28;;;;;;;29.25;21.05;;;13.80;99.90;;;;;;4949832;28;20699;-58
2022/04/14 08:27:56;;;;;;;28.38;20.92;;;13.90;99.90;;;;;;4949307;28;20058;-58
2022/04/14 08:30:24;;;;;;;29.20;20.42;;;14.00;99.90;;;;;;4935078;28;20121;-57
2022/04/14 08:32:50;;;;;;;28.77;20.45;;;14.10;99.90;;;;;;4948936;28;20409;-58
2022/04/14 08:35:18;;;;;;;28.10;21.25;;;14.30;99.90;;;;;;4950213;28;20073;-58
2022/04/14 08:37:45;;;;;;;26.50;20.60;;;14.40;99.90;;;;;;4946228;28;20051;-58
2022/04/14 08:40:13;;;;;;;28.42;20.30;;;14.50;99.90;;;;;;4947950;28;20430;-58
2022/04/14 08:42:51;;;;;;;28.90;20.85;;;14.60;99.90;;;;;;4959084;28;20133;-56
2022/04/14 08:45:17;;;;;;;27.67;19.98;;;14.60;99.90;;;;;;4928883;28;20130;-58
2022/04/14 08:47:43;;;;;;;28.25;20.48;;;14.80;99.90;;;;;;4937290;28;20055;-59
2022/04/14 08:50:14;;;;;;;27.58;20.48;;;14.90;99.90;;;;;;4962265;28;20065;-58
2022/04/14 08:52:40;;;;;;;27.83;19.80;;;15.00;99.90;;;;;;4949527;28;20054;-59
2022/04/14 08:55:10;;;;;;;26.98;19.40;;;15.20;99.90;;;;;;4929948;28;20054;-58
2022/04/14 08:57:37;;;;;;;25.98;18.60;;;15.30;99.90;;;;;;4949015;28;20511;-58
2022/04/14 09:00:06;;;;;;;25.50;17.38;;;15.40;99.90;;;;;;4946775;28;21682;-58
2022/04/14 09:02:34;;;;;;;20.08;15.95;;;15.50;99.90;;;;;;4945766;28;20047;-59
2022/04/14 09:05:01;;;;;;;21.52;15.63;;;15.60;99.90;;;;;;4962933;28;20130;-59
2022/04/14 09:07:27;;;;;;;22.73;15.32;;;15.80;99.90;;;;;;4945586;28;20082;-59
2022/04/14 09:09:53;;;;;;;20.90;15.15;;;15.90;99.90;;;;;;4945327;28;20043;-59
2022/04/14 09:12:19;;;;;;;18.10;14.20;;;16.00;99.90;;;;;;4949063;28;20058;-59
2022/04/14 09:14:46;;;;;;;21.77;14.40;;;16.10;99.90;;;;;;4947217;28;20067;-58
2022/04/14 09:17:12;;;;;;;18.60;12.93;;;16.20;99.90;;;;;;4949401;28;20066;-58
2022/04/14 09:19:38;;;;;;;17.85;12.95;;;16.20;99.90;;;;;;4950351;28;20090;-59
2022/04/14 09:22:07;;;;;;;19.35;13.18;;;16.30;99.90;;;;;;4947902;28;20121;-59
2022/04/14 09:24:39;;;;;;;18.67;13.07;;;16.40;99.90;;;;;;4949327;28;20050;-58
2022/04/14 09:27:06;;;;;;;20.67;13.13;;;16.50;99.90;;;;;;4951666;28;20054;-58
2022/04/14 09:29:32;;;;;;;15.77;12.05;;;16.60;99.90;;;;;;4946812;28;20105;-57
2022/04/14 09:31:58;;;;;;;13.98;10.65;;;16.70;99.90;;;;;;4948775;28;20055;-57
2022/04/14 09:34:48;;;;;;;18.45;12.30;;;16.80;99.90;;;;;;4949902;28;20050;-58
2022/04/14 09:37:15;;;;;;;16.40;12.35;;;16.80;99.90;;;;;;4949549;28;20057;-57
2022/04/14 09:40:00;;;;;;;18.33;11.70;;;16.90;99.90;;;;;;4947185;28;20713;-59
2022/04/14 09:42:35;;;;;;;16.67;11.48;;;17.20;99.90;;;;;;4951151;28;20059;-58
2022/04/14 09:45:20;;;;;;;12.90;10.32;;;17.30;99.90;;;;;;4947973;28;20050;-59
2022/04/14 09:47:47;;;;;;;12.60;9.82;;;17.40;99.90;;;;;;4949067;28;20050;-58
2022/04/14 09:50:40;;;;;;;14.23;9.90;;;17.30;99.90;;;;;;4946946;28;20055;-58
2022/04/14 09:53:08;;;;;;;15.35;10.88;;;17.40;99.90;;;;;;4930525;28;20155;-58
2022/04/14 09:55:42;;;;;;;18.45;11.55;;;17.40;99.90;;;;;;4948302;28;20551;-59
2022/04/14 09:58:19;;;;;;;14.75;10.25;;;17.50;99.90;;;;;;4938834;28;20063;-59
2022/04/14 10:00:52;;;;;;;19.95;11.38;;;17.50;99.90;;;;;;4952972;28;20054;-58
2022/04/14 10:03:30;;;;;;;15.30;11.70;;;17.50;99.90;;;;;;4955837;28;20047;-57
2022/04/14 10:05:58;;;;;;;15.82;11.20;;;17.70;99.90;;;;;;4937040;28;20047;-58
2022/04/14 10:08:25;;;;;;;19.25;11.77;;;17.80;99.90;;;;;;4957101;28;20051;-59
2022/04/14 10:11:06;;;;;;;14.35;10.32;;;18.00;99.90;;;;;;4956090;28;20105;-57
2022/04/14 10:13:39;;;;;;;15.77;10.25;;;18.10;99.90;;;;;;4956799;28;20065;-57
2022/04/14 10:16:09;;;;;;;12.07;8.70;;;18.30;99.90;;;;;;4952734;28;20210;-57
2022/04/14 10:18:36;;;;;;;13.25;8.10;;;18.40;99.90;;;;;;4958312;28;20069;-58
2022/04/14 10:21:06;;;;;;;9.07;6.57;;;18.60;99.90;;;;;;4952292;28;20047;-59
2022/04/14 10:23:33;;;;;;;10.57;6.30;;;18.50;99.90;;;;;;4956566;28;20448;-58
2022/04/14 10:26:00;;;;;;;8.43;5.88;;;18.30;99.90;;;;;;4954059;28;20417;-59
2022/04/14 10:28:28;;;;;;;11.75;6.10;;;18.30;99.90;;;;;;4969038;28;20065;-58
2022/04/14 10:30:57;;;;;;;8.02;5.15;;;18.20;99.90;;;;;;4954741;28;20134;-57
2022/04/14 10:33:24;;;;;;;8.20;5.03;;;18.20;99.90;;;;;;4957366;28;20051;-58
2022/04/14 10:35:52;;;;;;;8.85;5.43;;;18.20;99.80;;;;;;4969828;28;20082;-59
2022/04/14 10:38:21;;;;;;;9.30;5.20;;;18.40;99.30;;;;;;4954512;28;20047;-58
2022/04/14 10:41:14;;;;;;;9.82;6.40;;;18.50;99.20;;;;;;4951096;28;20126;-58
2022/04/14 10:43:42;;;;;;;8.07;5.88;;;18.60;99.00;;;;;;4949294;28;20449;-59
2022/04/14 10:46:08;;;;;;;10.27;6.30;;;18.80;99.60;;;;;;4946553;28;20043;-59
2022/04/14 10:48:36;;;;;;;7.90;5.97;;;19.00;98.90;;;;;;4949110;28;20035;-58
2022/04/14 10:51:28;;;;;;;10.75;6.75;;;19.00;98.60;;;;;;4934476;28;20140;-58
2022/04/14 10:54:04;;;;;;;9.85;5.97;;;19.00;97.80;;;;;;4942298;28;20129;-59
2022/04/14 10:56:49;;;;;;;10.48;6.68;;;18.60;97.80;;;;;;4952621;28;20050;-59
2022/04/14 10:59:19;;;;;;;12.63;6.55;;;18.40;98.20;;;;;;4939785;28;20058;-58
2022/04/14 11:04:41;;;;;;;13.55;8.93;;;18.40;98.80;;;;;;4952540;28;20043;-59
2022/04/14 11:07:21;;;;;;;9.27;7.32;;;18.30;98.70;;;;;;4948124;28;20051;-59
2022/04/14 11:09:52;;;;;;;9.70;5.95;;;18.20;99.00;;;;;;4967364;28;20449;-59
2022/04/14 11:12:50;;;;;;;10.02;5.38;;;18.20;98.70;;;;;;4947763;28;20062;-59
2022/04/14 11:15:30;;;;;;;8.38;5.00;;;18.10;98.40;;;;;;4949736;28;20066;-58
2022/04/14 11:18:06;;;;;;;9.55;4.72;;;18.00;98.10;;;;;;4953580;28;20108;-59
2022/04/14 11:20:34;;;;;;;9.63;5.95;;;18.10;98.10;;;;;;4933400;28;20066;-58
2022/04/14 11:23:14;;;;;;;9.45;5.40;;;18.30;97.70;;;;;;4951277;28;20552;-59
2022/04/14 11:25:41;;;;;;;6.75;4.63;;;18.40;97.30;;;;;;4950158;28;20105;-59
2022/04/14 11:28:20;;;;;;;10.30;5.53;;;18.50;96.50;;;;;;4949810;28;20049;-58
2022/04/14 11:30:51;;;;;;;10.23;5.88;;;18.70;96.70;;;;;;4952201;28;20051;-59
2022/04/14 11:33:28;;;;;;;7.13;4.80;;;18.90;96.60;;;;;;4954781;28;20042;-59
2022/04/14 11:36:06;;;;;;;7.15;5.40;;;19.00;95.70;;;;;;4949955;28;20055;-59
2022/04/14 11:38:55;;;;;;;9.90;4.90;;;19.10;95.80;;;;;;4951570;28;20043;-59
2022/04/14 11:41:50;;;;;;;8.15;4.38;;;19.10;95.00;;;;;;4948640;28;20548;-59
2022/04/14 11:44:20;;;;;;;8.68;4.43;;;19.10;94.30;;;;;;4947884;28;20055;-58
2022/04/14 11:46:48;;;;;;;8.45;5.30;;;19.20;94.00;;;;;;4935241;28;20051;-59
2022/04/14 11:49:21;;;;;;;8.80;4.80;;;19.20;94.00;;;;;;4950561;28;20064;-59
2022/04/14 11:51:48;;;;;;;8.07;5.00;;;19.30;93.40;;;;;;4951317;28;20472;-59
2022/04/14 11:54:26;;;;;;;7.60;4.43;;;19.30;93.30;;;;;;4947898;28;20047;-59
2022/04/14 11:56:54;;;;;;;10.18;5.43;;;19.40;93.60;;;;;;4949819;28;20039;-59
2022/04/14 11:59:30;;;;;;;7.80;4.38;;;19.50;93.70;;;;;;4950564;28;20176;-59
2022/04/14 12:02:00;;;;;;;8.40;4.22;;;19.60;93.90;;;;;;4948716;28;20125;-59
2022/04/14 12:04:26;;;;;;;6.93;4.35;;;19.60;93.40;;;;;;4949424;28;20050;-59
2022/04/14 12:06:54;;;;;;;7.72;4.18;;;19.50;93.10;;;;;;4947184;28;20047;-59
2022/04/14 12:09:20;;;;;;;7.18;4.30;;;19.40;93.40;;;;;;4949585;28;20042;-59
2022/04/14 12:11:46;;;;;;;9.32;4.80;;;19.50;93.60;;;;;;4948060;28;20134;-59
2022/04/14 12:14:13;;;;;;;7.93;4.40;;;19.50;93.30;;;;;;4949070;28;20502;-58
2022/04/14 12:16:53;;;;;;;6.97;4.80;;;19.50;92.70;;;;;;4911349;29;20105;-59
2022/04/14 12:19:22;;;;;;;7.18;4.60;;;19.30;92.80;;;;;;4911422;29;20122;-59
2022/04/14 12:22:05;;;;;;;7.43;3.85;;;19.30;93.80;;;;;;4912222;29;20044;-58
2022/04/14 12:24:31;;;;;;;9.38;4.22;;;19.30;94.30;;;;;;4911020;29;20494;-59
2022/04/14 12:26:58;;;;;;;11.35;5.05;;;19.20;94.30;;;;;;4943313;28;20546;-59
2022/04/14 12:29:24;;;;;;;10.38;4.85;;;19.20;93.50;;;;;;4933255;28;20829;-60
2022/04/14 12:32:09;;;;;;;12.65;8.18;;;19.00;93.50;;;;;;4913081;29;20052;-60
2022/04/14 12:34:35;;;;;;;13.40;8.52;;;18.90;94.70;;;;;;4914984;29;20094;-60
2022/04/14 12:37:08;;;;;;;15.77;8.55;;;18.80;96.10;;;;;;4907186;29;20411;-59
2022/04/14 12:39:34;;;;;;;15.23;8.80;;;18.80;96.40;;;;;;4913347;29;20048;-60
2022/04/14 12:42:00;;;;;;;15.07;8.98;;;18.70;97.10;;;;;;4906244;29;20039;-59
2022/04/14 12:44:26;;;;;;;16.60;9.48;;;18.60;97.20;;;;;;4893011;29;20134;-59